<?xml version="1.0"?>
<gpx xmlns="http://www.topografix.com/GPX/1/1" version="1.1" creator="afstandmeten.nl" xmlns:xsi="http://www.w3.org/2001/XMLSchema-instance" xsi:schemaLocation="http://www.topografix.com/GPX/1/1 http://www.topografix.com/GPX/1/1/gpx.xsd">
  <wpt lat="51.7133097" lon="5.7819843">
    <time>2018-01-01T01:01:01.000Z</time>
    <name>CUP</name>
    <cmt>CUP</cmt>
    <desc>CUP</desc>
  </wpt>
  <wpt lat="51.6873502" lon="5.7788944">
    <time>2018-01-01T01:01:01.000Z</time>
    <name>CUP</name>
    <cmt>CUP</cmt>
    <desc>CUP</desc>
  </wpt>
  <wpt lat="51.6778244" lon="5.775032">
    <time>2018-01-01T01:01:01.000Z</time>
    <name>CUP</name>
    <cmt>CUP</cmt>
    <desc>CUP</desc>
  </wpt>
  <wpt lat="51.696342" lon="5.753746">
    <time>2018-01-01T01:01:01.000Z</time>
    <name>CUP</name>
    <cmt>CUP</cmt>
    <desc>CUP</desc>
  </wpt>
  <wpt lat="51.6866052" lon="5.7814693">
    <time>2018-01-01T01:01:01.000Z</time>
    <name>INFO</name>
    <cmt>INFO</cmt>
    <desc>INFO</desc>
  </wpt>
  <wpt lat="51.6949055" lon="5.755806">
    <time>2018-01-01T01:01:01.000Z</time>
    <name>INFO</name>
    <cmt>INFO</cmt>
    <desc>INFO</desc>
  </wpt>
  <trk>
    <name>Themaroute Beleef de Oorlog 15 km</name>
    <desc/>
    <trkseg>
      <trkpt lat="51.6866319" lon="5.7772851">
        <ele>0.00000</ele>
        <time>2016-05-20T00:00:00Z</time>
      </trkpt>
      <trkpt lat="51.6866052" lon="5.776577">
        <ele>0.00000</ele>
        <time>2016-05-20T00:00:12Z</time>
      </trkpt>
      <trkpt lat="51.68692" lon="5.77639">
        <ele>0.00000</ele>
        <time>2016-05-20T00:00:22Z</time>
      </trkpt>
      <trkpt lat="51.68797" lon="5.77571">
        <ele>0.00000</ele>
        <time>2016-05-20T00:00:52Z</time>
      </trkpt>
      <trkpt lat="51.68981" lon="5.77624">
        <ele>0.00000</ele>
        <time>2016-05-20T00:01:43Z</time>
      </trkpt>
      <trkpt lat="51.69009" lon="5.7764">
        <ele>0.00000</ele>
        <time>2016-05-20T00:01:51Z</time>
      </trkpt>
      <trkpt lat="51.69087" lon="5.77673">
        <ele>0.00000</ele>
        <time>2016-05-20T00:02:13Z</time>
      </trkpt>
      <trkpt lat="51.69127" lon="5.77686">
        <ele>0.00000</ele>
        <time>2016-05-20T00:02:24Z</time>
      </trkpt>
      <trkpt lat="51.69166" lon="5.7771">
        <ele>0.00000</ele>
        <time>2016-05-20T00:02:36Z</time>
      </trkpt>
      <trkpt lat="51.6931" lon="5.77811">
        <ele>0.00000</ele>
        <time>2016-05-20T00:03:19Z</time>
      </trkpt>
      <trkpt lat="51.69326" lon="5.77825">
        <ele>0.00000</ele>
        <time>2016-05-20T00:03:24Z</time>
      </trkpt>
      <trkpt lat="51.69376" lon="5.77883">
        <ele>0.00000</ele>
        <time>2016-05-20T00:03:40Z</time>
      </trkpt>
      <trkpt lat="51.69399" lon="5.77907">
        <ele>0.00000</ele>
        <time>2016-05-20T00:03:48Z</time>
      </trkpt>
      <trkpt lat="51.69413" lon="5.77913">
        <ele>0.00000</ele>
        <time>2016-05-20T00:03:52Z</time>
      </trkpt>
      <trkpt lat="51.6942" lon="5.77919">
        <ele>0.00000</ele>
        <time>2016-05-20T00:03:54Z</time>
      </trkpt>
      <trkpt lat="51.6942" lon="5.77919">
        <ele>0.00000</ele>
        <time>2016-05-20T00:03:54Z</time>
      </trkpt>
      <trkpt lat="51.69403" lon="5.77949">
        <ele>0.00000</ele>
        <time>2016-05-20T00:04:01Z</time>
      </trkpt>
      <trkpt lat="51.6949986" lon="5.7805037">
        <ele>0.00000</ele>
        <time>2016-05-20T00:04:32Z</time>
      </trkpt>
      <trkpt lat="51.69537" lon="5.78028">
        <ele>0.00000</ele>
        <time>2016-05-20T00:04:43Z</time>
      </trkpt>
      <trkpt lat="51.69591" lon="5.78003">
        <ele>0.00000</ele>
        <time>2016-05-20T00:04:58Z</time>
      </trkpt>
      <trkpt lat="51.69633" lon="5.77992">
        <ele>0.00000</ele>
        <time>2016-05-20T00:05:10Z</time>
      </trkpt>
      <trkpt lat="51.69669" lon="5.77988">
        <ele>0.00000</ele>
        <time>2016-05-20T00:05:20Z</time>
      </trkpt>
      <trkpt lat="51.69698" lon="5.77983">
        <ele>0.00000</ele>
        <time>2016-05-20T00:05:28Z</time>
      </trkpt>
      <trkpt lat="51.69735" lon="5.77975">
        <ele>0.00000</ele>
        <time>2016-05-20T00:05:38Z</time>
      </trkpt>
      <trkpt lat="51.69764" lon="5.77966">
        <ele>0.00000</ele>
        <time>2016-05-20T00:05:46Z</time>
      </trkpt>
      <trkpt lat="51.69778" lon="5.77958">
        <ele>0.00000</ele>
        <time>2016-05-20T00:05:50Z</time>
      </trkpt>
      <trkpt lat="51.69787" lon="5.7795">
        <ele>0.00000</ele>
        <time>2016-05-20T00:05:53Z</time>
      </trkpt>
      <trkpt lat="51.69827" lon="5.77904">
        <ele>0.00000</ele>
        <time>2016-05-20T00:06:06Z</time>
      </trkpt>
      <trkpt lat="51.6989" lon="5.77841">
        <ele>0.00000</ele>
        <time>2016-05-20T00:06:26Z</time>
      </trkpt>
      <trkpt lat="51.6989" lon="5.77841">
        <ele>0.00000</ele>
        <time>2016-05-20T00:06:26Z</time>
      </trkpt>
      <trkpt lat="51.69911" lon="5.77941">
        <ele>0.00000</ele>
        <time>2016-05-20T00:06:44Z</time>
      </trkpt>
      <trkpt lat="51.69911" lon="5.77941">
        <ele>0.00000</ele>
        <time>2016-05-20T00:06:44Z</time>
      </trkpt>
      <trkpt lat="51.70333" lon="5.77868">
        <ele>0.00000</ele>
        <time>2016-05-20T00:08:40Z</time>
      </trkpt>
      <trkpt lat="51.70754" lon="5.77798">
        <ele>0.00000</ele>
        <time>2016-05-20T00:10:35Z</time>
      </trkpt>
      <trkpt lat="51.70805" lon="5.77792">
        <ele>0.00000</ele>
        <time>2016-05-20T00:10:49Z</time>
      </trkpt>
      <trkpt lat="51.70962" lon="5.77766">
        <ele>0.00000</ele>
        <time>2016-05-20T00:11:32Z</time>
      </trkpt>
      <trkpt lat="51.70998" lon="5.77763">
        <ele>0.00000</ele>
        <time>2016-05-20T00:11:42Z</time>
      </trkpt>
      <trkpt lat="51.71006" lon="5.77767">
        <ele>0.00000</ele>
        <time>2016-05-20T00:11:44Z</time>
      </trkpt>
      <trkpt lat="51.71008" lon="5.77768">
        <ele>0.00000</ele>
        <time>2016-05-20T00:11:44Z</time>
      </trkpt>
      <trkpt lat="51.71008" lon="5.77768">
        <ele>0.00000</ele>
        <time>2016-05-20T00:11:44Z</time>
      </trkpt>
      <trkpt lat="51.71031" lon="5.77777">
        <ele>0.00000</ele>
        <time>2016-05-20T00:11:51Z</time>
      </trkpt>
      <trkpt lat="51.71061" lon="5.7779">
        <ele>0.00000</ele>
        <time>2016-05-20T00:11:59Z</time>
      </trkpt>
      <trkpt lat="51.71067" lon="5.77796">
        <ele>0.00000</ele>
        <time>2016-05-20T00:12:01Z</time>
      </trkpt>
      <trkpt lat="51.71147" lon="5.77928">
        <ele>0.00000</ele>
        <time>2016-05-20T00:12:32Z</time>
      </trkpt>
      <trkpt lat="51.71151" lon="5.77933">
        <ele>0.00000</ele>
        <time>2016-05-20T00:12:34Z</time>
      </trkpt>
      <trkpt lat="51.71262" lon="5.78023">
        <ele>0.00000</ele>
        <time>2016-05-20T00:13:08Z</time>
      </trkpt>
      <trkpt lat="51.7126" lon="5.78031">
        <ele>0.00000</ele>
        <time>2016-05-20T00:13:09Z</time>
      </trkpt>
      <trkpt lat="51.7126" lon="5.78031">
        <ele>0.00000</ele>
        <time>2016-05-20T00:13:09Z</time>
      </trkpt>
      <trkpt lat="51.71275" lon="5.77985">
        <ele>0.00000</ele>
        <time>2016-05-20T00:13:18Z</time>
      </trkpt>
      <trkpt lat="51.71283" lon="5.77972">
        <ele>0.00000</ele>
        <time>2016-05-20T00:13:21Z</time>
      </trkpt>
      <trkpt lat="51.71323" lon="5.77937">
        <ele>0.00000</ele>
        <time>2016-05-20T00:13:33Z</time>
      </trkpt>
      <trkpt lat="51.71332" lon="5.77918">
        <ele>0.00000</ele>
        <time>2016-05-20T00:13:37Z</time>
      </trkpt>
      <trkpt lat="51.71508" lon="5.77442">
        <ele>0.00000</ele>
        <time>2016-05-20T00:15:11Z</time>
      </trkpt>
      <trkpt lat="51.7177" lon="5.76722">
        <ele>0.00000</ele>
        <time>2016-05-20T00:17:32Z</time>
      </trkpt>
      <trkpt lat="51.71871" lon="5.76445">
        <ele>0.00000</ele>
        <time>2016-05-20T00:18:26Z</time>
      </trkpt>
      <trkpt lat="51.71871" lon="5.76445">
        <ele>0.00000</ele>
        <time>2016-05-20T00:18:26Z</time>
      </trkpt>
      <trkpt lat="51.71873" lon="5.7644">
        <ele>0.00000</ele>
        <time>2016-05-20T00:18:27Z</time>
      </trkpt>
      <trkpt lat="51.71843" lon="5.76387">
        <ele>0.00000</ele>
        <time>2016-05-20T00:18:39Z</time>
      </trkpt>
      <trkpt lat="51.71811" lon="5.76327">
        <ele>0.00000</ele>
        <time>2016-05-20T00:18:53Z</time>
      </trkpt>
      <trkpt lat="51.71807" lon="5.7632">
        <ele>0.00000</ele>
        <time>2016-05-20T00:18:54Z</time>
      </trkpt>
      <trkpt lat="51.71807" lon="5.7632">
        <ele>0.00000</ele>
        <time>2016-05-20T00:18:54Z</time>
      </trkpt>
      <trkpt lat="51.71799" lon="5.76304">
        <ele>0.00000</ele>
        <time>2016-05-20T00:18:58Z</time>
      </trkpt>
      <trkpt lat="51.71787" lon="5.76314">
        <ele>0.00000</ele>
        <time>2016-05-20T00:19:01Z</time>
      </trkpt>
      <trkpt lat="51.71769" lon="5.76335">
        <ele>0.00000</ele>
        <time>2016-05-20T00:19:07Z</time>
      </trkpt>
      <trkpt lat="51.71764" lon="5.76336">
        <ele>0.00000</ele>
        <time>2016-05-20T00:19:09Z</time>
      </trkpt>
      <trkpt lat="51.71764" lon="5.76336">
        <ele>0.00000</ele>
        <time>2016-05-20T00:19:09Z</time>
      </trkpt>
      <trkpt lat="51.71643" lon="5.76346">
        <ele>0.00000</ele>
        <time>2016-05-20T00:19:42Z</time>
      </trkpt>
      <trkpt lat="51.71567" lon="5.76369">
        <ele>0.00000</ele>
        <time>2016-05-20T00:20:03Z</time>
      </trkpt>
      <trkpt lat="51.71484" lon="5.7641">
        <ele>0.00000</ele>
        <time>2016-05-20T00:20:26Z</time>
      </trkpt>
      <trkpt lat="51.71447" lon="5.76423">
        <ele>0.00000</ele>
        <time>2016-05-20T00:20:37Z</time>
      </trkpt>
      <trkpt lat="51.71422" lon="5.76426">
        <ele>0.00000</ele>
        <time>2016-05-20T00:20:43Z</time>
      </trkpt>
      <trkpt lat="51.71429" lon="5.76443">
        <ele>0.00000</ele>
        <time>2016-05-20T00:20:47Z</time>
      </trkpt>
      <trkpt lat="51.71431" lon="5.76458">
        <ele>0.00000</ele>
        <time>2016-05-20T00:20:50Z</time>
      </trkpt>
      <trkpt lat="51.71431" lon="5.76458">
        <ele>0.00000</ele>
        <time>2016-05-20T00:20:50Z</time>
      </trkpt>
      <trkpt lat="51.71429" lon="5.76443">
        <ele>0.00000</ele>
        <time>2016-05-20T00:20:52Z</time>
      </trkpt>
      <trkpt lat="51.71422" lon="5.76426">
        <ele>0.00000</ele>
        <time>2016-05-20T00:20:56Z</time>
      </trkpt>
      <trkpt lat="51.71344" lon="5.76328">
        <ele>0.00000</ele>
        <time>2016-05-20T00:21:22Z</time>
      </trkpt>
      <trkpt lat="51.71106" lon="5.76015">
        <ele>0.00000</ele>
        <time>2016-05-20T00:22:46Z</time>
      </trkpt>
      <trkpt lat="51.7107" lon="5.75967">
        <ele>0.00000</ele>
        <time>2016-05-20T00:22:59Z</time>
      </trkpt>
      <trkpt lat="51.71045" lon="5.7593">
        <ele>0.00000</ele>
        <time>2016-05-20T00:23:08Z</time>
      </trkpt>
      <trkpt lat="51.71005" lon="5.75842">
        <ele>0.00000</ele>
        <time>2016-05-20T00:23:26Z</time>
      </trkpt>
      <trkpt lat="51.70971" lon="5.75761">
        <ele>0.00000</ele>
        <time>2016-05-20T00:23:43Z</time>
      </trkpt>
      <trkpt lat="51.70935" lon="5.75694">
        <ele>0.00000</ele>
        <time>2016-05-20T00:23:58Z</time>
      </trkpt>
      <trkpt lat="51.70932" lon="5.75677">
        <ele>0.00000</ele>
        <time>2016-05-20T00:24:01Z</time>
      </trkpt>
      <trkpt lat="51.70933" lon="5.75673">
        <ele>0.00000</ele>
        <time>2016-05-20T00:24:02Z</time>
      </trkpt>
      <trkpt lat="51.70933" lon="5.75673">
        <ele>0.00000</ele>
        <time>2016-05-20T00:24:02Z</time>
      </trkpt>
      <trkpt lat="51.70934" lon="5.75667">
        <ele>0.00000</ele>
        <time>2016-05-20T00:24:03Z</time>
      </trkpt>
      <trkpt lat="51.70961" lon="5.7562">
        <ele>0.00000</ele>
        <time>2016-05-20T00:24:14Z</time>
      </trkpt>
      <trkpt lat="51.70961" lon="5.7562">
        <ele>0.00000</ele>
        <time>2016-05-20T00:24:14Z</time>
      </trkpt>
      <trkpt lat="51.70963" lon="5.75616">
        <ele>0.00000</ele>
        <time>2016-05-20T00:24:14Z</time>
      </trkpt>
      <trkpt lat="51.70879" lon="5.75507">
        <ele>0.00000</ele>
        <time>2016-05-20T00:24:44Z</time>
      </trkpt>
      <trkpt lat="51.70726" lon="5.75305">
        <ele>0.00000</ele>
        <time>2016-05-20T00:25:38Z</time>
      </trkpt>
      <trkpt lat="51.70706" lon="5.75344">
        <ele>0.00000</ele>
        <time>2016-05-20T00:25:46Z</time>
      </trkpt>
      <trkpt lat="51.7059835" lon="5.7523942">
        <ele>0.00000</ele>
        <time>2016-05-20T00:26:20Z</time>
      </trkpt>
      <trkpt lat="51.7058904" lon="5.7537031">
        <ele>0.00000</ele>
        <time>2016-05-20T00:26:43Z</time>
      </trkpt>
      <trkpt lat="51.7045341" lon="5.7549262">
        <ele>0.00000</ele>
        <time>2016-05-20T00:27:25Z</time>
      </trkpt>
      <trkpt lat="51.7044676" lon="5.7553768">
        <ele>0.00000</ele>
        <time>2016-05-20T00:27:33Z</time>
      </trkpt>
      <trkpt lat="51.7035367" lon="5.7557416">
        <ele>0.00000</ele>
        <time>2016-05-20T00:27:59Z</time>
      </trkpt>
      <trkpt lat="51.7034428" lon="5.7558073">
        <ele>0.00000</ele>
        <time>2016-05-20T00:28:02Z</time>
      </trkpt>
      <trkpt lat="51.7017548" lon="5.7553554">
        <ele>0.00000</ele>
        <time>2016-05-20T00:28:48Z</time>
      </trkpt>
      <trkpt lat="51.7000126" lon="5.7554412">
        <ele>0.00000</ele>
        <time>2016-05-20T00:29:36Z</time>
      </trkpt>
      <trkpt lat="51.6996935" lon="5.7533813">
        <ele>0.00000</ele>
        <time>2016-05-20T00:30:11Z</time>
      </trkpt>
      <trkpt lat="51.6985364" lon="5.7538855">
        <ele>0.00000</ele>
        <time>2016-05-20T00:30:44Z</time>
      </trkpt>
      <trkpt lat="51.6980244" lon="5.753113">
        <ele>0.00000</ele>
        <time>2016-05-20T00:31:03Z</time>
      </trkpt>
      <trkpt lat="51.6981507" lon="5.7519436">
        <ele>0.00000</ele>
        <time>2016-05-20T00:31:23Z</time>
      </trkpt>
      <trkpt lat="51.6972065" lon="5.7520723">
        <ele>0.00000</ele>
        <time>2016-05-20T00:31:49Z</time>
      </trkpt>
      <trkpt lat="51.6956902" lon="5.7504523">
        <ele>0.00000</ele>
        <time>2016-05-20T00:32:39Z</time>
      </trkpt>
      <trkpt lat="51.6946129" lon="5.7533598">
        <ele>0.00000</ele>
        <time>2016-05-20T00:33:36Z</time>
      </trkpt>
      <trkpt lat="51.6929437" lon="5.7522333">
        <ele>0.00000</ele>
        <time>2016-05-20T00:34:25Z</time>
      </trkpt>
      <trkpt lat="51.6923651" lon="5.7497978">
        <ele>0.00000</ele>
        <time>2016-05-20T00:35:09Z</time>
      </trkpt>
      <trkpt lat="51.6934491" lon="5.7447124">
        <ele>0.00000</ele>
        <time>2016-05-20T00:36:40Z</time>
      </trkpt>
      <trkpt lat="51.6913941" lon="5.7418907">
        <ele>0.00000</ele>
        <time>2016-05-20T00:37:53Z</time>
      </trkpt>
      <trkpt lat="51.6908819" lon="5.7424164">
        <ele>0.00000</ele>
        <time>2016-05-20T00:38:10Z</time>
      </trkpt>
      <trkpt lat="51.6892259" lon="5.7426739">
        <ele>0.00000</ele>
        <time>2016-05-20T00:38:55Z</time>
      </trkpt>
      <trkpt lat="51.6895784" lon="5.7457423">
        <ele>0.00000</ele>
        <time>2016-05-20T00:39:48Z</time>
      </trkpt>
      <trkpt lat="51.6885607" lon="5.7523942">
        <ele>0.00000</ele>
        <time>2016-05-20T00:41:43Z</time>
      </trkpt>
      <trkpt lat="51.6860997" lon="5.7501197">
        <ele>0.00000</ele>
        <time>2016-05-20T00:43:01Z</time>
      </trkpt>
      <trkpt lat="51.68138" lon="5.75136">
        <ele>0.00000</ele>
        <time>2016-05-20T00:45:11Z</time>
      </trkpt>
      <trkpt lat="51.68138" lon="5.75136">
        <ele>0.00000</ele>
        <time>2016-05-20T00:45:11Z</time>
      </trkpt>
      <trkpt lat="51.68166" lon="5.75216">
        <ele>0.00000</ele>
        <time>2016-05-20T00:45:26Z</time>
      </trkpt>
      <trkpt lat="51.6831" lon="5.75529">
        <ele>0.00000</ele>
        <time>2016-05-20T00:46:32Z</time>
      </trkpt>
      <trkpt lat="51.6839" lon="5.75704">
        <ele>0.00000</ele>
        <time>2016-05-20T00:47:09Z</time>
      </trkpt>
      <trkpt lat="51.6839" lon="5.75704">
        <ele>0.00000</ele>
        <time>2016-05-20T00:47:09Z</time>
      </trkpt>
      <trkpt lat="51.68329" lon="5.75706">
        <ele>0.00000</ele>
        <time>2016-05-20T00:47:26Z</time>
      </trkpt>
      <trkpt lat="51.68274" lon="5.75711">
        <ele>0.00000</ele>
        <time>2016-05-20T00:47:41Z</time>
      </trkpt>
      <trkpt lat="51.68117" lon="5.75737">
        <ele>0.00000</ele>
        <time>2016-05-20T00:48:24Z</time>
      </trkpt>
      <trkpt lat="51.68026" lon="5.75755">
        <ele>0.00000</ele>
        <time>2016-05-20T00:48:48Z</time>
      </trkpt>
      <trkpt lat="51.67969" lon="5.75769">
        <ele>0.00000</ele>
        <time>2016-05-20T00:49:04Z</time>
      </trkpt>
      <trkpt lat="51.67925" lon="5.75781">
        <ele>0.00000</ele>
        <time>2016-05-20T00:49:16Z</time>
      </trkpt>
      <trkpt lat="51.67883" lon="5.75788">
        <ele>0.00000</ele>
        <time>2016-05-20T00:49:28Z</time>
      </trkpt>
      <trkpt lat="51.67792" lon="5.75791">
        <ele>0.00000</ele>
        <time>2016-05-20T00:49:53Z</time>
      </trkpt>
      <trkpt lat="51.67776" lon="5.75791">
        <ele>0.00000</ele>
        <time>2016-05-20T00:49:57Z</time>
      </trkpt>
      <trkpt lat="51.67776" lon="5.75791">
        <ele>0.00000</ele>
        <time>2016-05-20T00:49:57Z</time>
      </trkpt>
      <trkpt lat="51.67782" lon="5.75966">
        <ele>0.00000</ele>
        <time>2016-05-20T00:50:27Z</time>
      </trkpt>
      <trkpt lat="51.67784" lon="5.75988">
        <ele>0.00000</ele>
        <time>2016-05-20T00:50:30Z</time>
      </trkpt>
      <trkpt lat="51.67787" lon="5.76004">
        <ele>0.00000</ele>
        <time>2016-05-20T00:50:33Z</time>
      </trkpt>
      <trkpt lat="51.67784" lon="5.7603">
        <ele>0.00000</ele>
        <time>2016-05-20T00:50:38Z</time>
      </trkpt>
      <trkpt lat="51.6779" lon="5.76174">
        <ele>0.00000</ele>
        <time>2016-05-20T00:51:02Z</time>
      </trkpt>
      <trkpt lat="51.67792" lon="5.76183">
        <ele>0.00000</ele>
        <time>2016-05-20T00:51:04Z</time>
      </trkpt>
      <trkpt lat="51.67792" lon="5.76183">
        <ele>0.00000</ele>
        <time>2016-05-20T00:51:04Z</time>
      </trkpt>
      <trkpt lat="51.67796" lon="5.76192">
        <ele>0.00000</ele>
        <time>2016-05-20T00:51:05Z</time>
      </trkpt>
      <trkpt lat="51.67892" lon="5.76354">
        <ele>0.00000</ele>
        <time>2016-05-20T00:51:43Z</time>
      </trkpt>
      <trkpt lat="51.67912" lon="5.76391">
        <ele>0.00000</ele>
        <time>2016-05-20T00:51:52Z</time>
      </trkpt>
      <trkpt lat="51.67912" lon="5.76391">
        <ele>0.00000</ele>
        <time>2016-05-20T00:51:52Z</time>
      </trkpt>
      <trkpt lat="51.67919" lon="5.76416">
        <ele>0.00000</ele>
        <time>2016-05-20T00:51:56Z</time>
      </trkpt>
      <trkpt lat="51.6794" lon="5.76549">
        <ele>0.00000</ele>
        <time>2016-05-20T00:52:19Z</time>
      </trkpt>
      <trkpt lat="51.67962" lon="5.76667">
        <ele>0.00000</ele>
        <time>2016-05-20T00:52:40Z</time>
      </trkpt>
      <trkpt lat="51.67967" lon="5.76673">
        <ele>0.00000</ele>
        <time>2016-05-20T00:52:42Z</time>
      </trkpt>
      <trkpt lat="51.67981" lon="5.76677">
        <ele>0.00000</ele>
        <time>2016-05-20T00:52:46Z</time>
      </trkpt>
      <trkpt lat="51.67984" lon="5.76676">
        <ele>0.00000</ele>
        <time>2016-05-20T00:52:47Z</time>
      </trkpt>
      <trkpt lat="51.67988" lon="5.76678">
        <ele>0.00000</ele>
        <time>2016-05-20T00:52:48Z</time>
      </trkpt>
      <trkpt lat="51.67991" lon="5.76686">
        <ele>0.00000</ele>
        <time>2016-05-20T00:52:49Z</time>
      </trkpt>
      <trkpt lat="51.67996" lon="5.76724">
        <ele>0.00000</ele>
        <time>2016-05-20T00:52:56Z</time>
      </trkpt>
      <trkpt lat="51.67996" lon="5.76724">
        <ele>0.00000</ele>
        <time>2016-05-20T00:52:56Z</time>
      </trkpt>
      <trkpt lat="51.68" lon="5.76737">
        <ele>0.00000</ele>
        <time>2016-05-20T00:52:58Z</time>
      </trkpt>
      <trkpt lat="51.68006" lon="5.76738">
        <ele>0.00000</ele>
        <time>2016-05-20T00:53:00Z</time>
      </trkpt>
      <trkpt lat="51.68013" lon="5.76741">
        <ele>0.00000</ele>
        <time>2016-05-20T00:53:02Z</time>
      </trkpt>
      <trkpt lat="51.68112" lon="5.76937">
        <ele>0.00000</ele>
        <time>2016-05-20T00:53:45Z</time>
      </trkpt>
      <trkpt lat="51.68112" lon="5.76937">
        <ele>0.00000</ele>
        <time>2016-05-20T00:53:45Z</time>
      </trkpt>
      <trkpt lat="51.68118" lon="5.76951">
        <ele>0.00000</ele>
        <time>2016-05-20T00:53:48Z</time>
      </trkpt>
      <trkpt lat="51.68081" lon="5.76997">
        <ele>0.00000</ele>
        <time>2016-05-20T00:54:00Z</time>
      </trkpt>
      <trkpt lat="51.68047" lon="5.77047">
        <ele>0.00000</ele>
        <time>2016-05-20T00:54:13Z</time>
      </trkpt>
      <trkpt lat="51.68034" lon="5.77071">
        <ele>0.00000</ele>
        <time>2016-05-20T00:54:18Z</time>
      </trkpt>
      <trkpt lat="51.67949" lon="5.77263">
        <ele>0.00000</ele>
        <time>2016-05-20T00:54:58Z</time>
      </trkpt>
      <trkpt lat="51.6793" lon="5.77312">
        <ele>0.00000</ele>
        <time>2016-05-20T00:55:08Z</time>
      </trkpt>
      <trkpt lat="51.6793" lon="5.77312">
        <ele>0.00000</ele>
        <time>2016-05-20T00:55:08Z</time>
      </trkpt>
      <trkpt lat="51.6793878" lon="5.7732511">
        <ele>0.00000</ele>
        <time>2016-05-20T00:55:11Z</time>
      </trkpt>
      <trkpt lat="51.6805187" lon="5.7706869">
        <ele>0.00000</ele>
        <time>2016-05-20T00:56:04Z</time>
      </trkpt>
      <trkpt lat="51.6812904" lon="5.7696784">
        <ele>0.00000</ele>
        <time>2016-05-20T00:56:31Z</time>
      </trkpt>
      <trkpt lat="51.6848625" lon="5.7761264">
        <ele>0.00000</ele>
        <time>2016-05-20T00:58:57Z</time>
      </trkpt>
      <trkpt lat="51.6856075" lon="5.7771564">
        <ele>0.00000</ele>
        <time>2016-05-20T00:59:24Z</time>
      </trkpt>
      <trkpt lat="51.6863658" lon="5.7767057">
        <ele>0.00000</ele>
        <time>2016-05-20T00:59:46Z</time>
      </trkpt>
      <trkpt lat="51.6864323" lon="5.7772851">
        <ele>0.00000</ele>
        <time>2016-05-20T00:59:56Z</time>
      </trkpt>
    </trkseg>
  </trk>
</gpx>

